Time;durP1;ratioP1;P1;durP2;ratioP2;P2;SDS_P1;SDS_P2;PMS_P1;PMS_P2;Temp;Humidity;BMP_temperature;BMP_pressure;BME280_temperature;BME280_humidity;BME280_pressure;Samples;Min_cycle;Max_cycle;Signal;HPM_P1;HPM_P2
2023/08/17 00:02:40;;;;;;;8.43;3.42;;;;;;;;;;5086197;28;20455;-61
2023/08/17 00:06:21;;;;;;;15.18;3.47;;;;;;;;;;5085689;28;20039;-63
2023/08/17 00:10:01;;;;;;;8.88;3.88;;;;;;;;;;5073110;28;20182;-57
2023/08/17 00:13:41;;;;;;;8.32;3.47;;;;;;;;;;5077938;28;20055;-61
2023/08/17 00:17:22;;;;;;;16.38;3.92;;;;;;;;;;5080178;28;20056;-62
2023/08/17 00:21:03;;;;;;;13.20;3.72;;;;;;;;;;5074560;28;20052;-61
2023/08/17 00:24:44;;;;;;;11.60;3.45;;;;;;;;;;5077446;28;20048;-62
2023/08/17 00:28:23;;;;;;;10.80;3.70;;;;;;;;;;5079040;28;20069;-61
2023/08/17 00:32:03;;;;;;;11.32;3.70;;;;;;;;;;5085612;28;20067;-64
2023/08/17 00:35:45;;;;;;;11.35;3.88;;;;;;;;;;5081500;28;20454;-60
2023/08/17 00:39:24;;;;;;;12.10;3.47;;;;;;;;;;5077606;28;20044;-58
2023/08/17 00:43:05;;;;;;;10.43;3.30;;;;;;;;;;5082589;28;20048;-64
2023/08/17 00:46:45;;;;;;;15.20;3.97;;;;;;;;;;5079155;28;20282;-58
2023/08/17 00:50:26;;;;;;;13.43;4.05;;;;;;;;;;5070752;28;20097;-60
2023/08/17 00:54:06;;;;;;;8.75;3.35;;;;;;;;;;5081562;28;20115;-57
2023/08/17 00:57:46;;;;;;;10.52;3.20;;;;;;;;;;5072487;28;20048;-58
2023/08/17 01:01:27;;;;;;;12.50;3.30;;;;;;;;;;5082258;28;20708;-58
2023/08/17 01:05:07;;;;;;;11.98;3.15;;;;;;;;;;5079041;28;20165;-61
2023/08/17 01:08:49;;;;;;;10.60;3.10;;;;;;;;;;5082132;28;20442;-58
2023/08/17 01:12:12;;;;;;;9.73;3.08;;;;;;;;;;5079018;28;20056;-60
2023/08/17 01:15:55;;;;;;;9.35;3.50;;;;;;;;;;5078192;28;20052;-62
2023/08/17 01:19:37;;;;;;;8.50;3.28;;;;;;;;;;5079406;28;20054;-62
2023/08/17 01:23:16;;;;;;;12.25;3.58;;;;;;;;;;5083974;28;20048;-59
2023/08/17 01:26:56;;;;;;;11.20;2.83;;;;;;;;;;5084279;28;20075;-59
2023/08/17 01:30:39;;;;;;;9.60;3.40;;;;;;;;;;5079155;28;20095;-57
2023/08/17 01:34:23;;;;;;;12.10;2.90;;;;;;;;;;5083539;28;20044;-60
2023/08/17 01:38:04;;;;;;;10.02;3.25;;;;;;;;;;5080913;28;20064;-57
2023/08/17 01:41:43;;;;;;;16.75;3.90;;;;;;;;;;5083815;28;20429;-61
2023/08/17 01:45:24;;;;;;;10.52;3.40;;;;;;;;;;5084727;28;20047;-56
2023/08/17 01:49:04;;;;;;;11.82;3.17;;;;;;;;;;5080153;28;20093;-59
2023/08/17 01:52:47;;;;;;;11.90;3.80;;;;;;;;;;5071523;28;20047;-60
2023/08/17 01:56:27;;;;;;;8.15;3.53;;;;;;;;;;5078149;28;20036;-58
2023/08/17 02:00:10;;;;;;;12.38;2.90;;;;;;;;;;5080818;28;20059;-59
2023/08/17 02:03:48;;;;;;;9.80;2.90;;;;;;;;;;5077474;28;20048;-59
2023/08/17 02:07:28;;;;;;;7.90;3.20;;;;;;;;;;5081257;28;20488;-60
2023/08/17 02:11:10;;;;;;;9.23;2.85;;;;;;;;;;5076712;28;20124;-60
2023/08/17 02:14:50;;;;;;;8.25;3.00;;;;;;;;;;5079212;28;20044;-60
2023/08/17 02:18:31;;;;;;;11.20;3.58;;;;;;;;;;5084958;28;20044;-58
2023/08/17 02:22:10;;;;;;;11.18;3.40;;;;;;;;;;5078336;28;20060;-59
2023/08/17 02:25:51;;;;;;;13.57;3.28;;;;;;;;;;5072523;28;20071;-60
2023/08/17 02:29:31;;;;;;;11.63;3.22;;;;;;;;;;5081702;28;20449;-62
2023/08/17 02:33:11;;;;;;;8.00;3.15;;;;;;;;;;5081706;28;20048;-59
2023/08/17 02:36:52;;;;;;;10.68;3.10;;;;;;;;;;5078798;28;20051;-57
2023/08/17 02:40:32;;;;;;;12.25;3.58;;;;;;;;;;5078585;28;20044;-56
2023/08/17 02:44:12;;;;;;;8.07;2.92;;;;;;;;;;5084548;28;20076;-58
2023/08/17 02:47:53;;;;;;;10.18;2.85;;;;;;;;;;5085918;28;20513;-58
2023/08/17 02:51:33;;;;;;;8.80;3.10;;;;;;;;;;5071871;28;20066;-61
2023/08/17 02:55:13;;;;;;;10.18;3.13;;;;;;;;;;5077029;28;20044;-56
2023/08/17 02:58:54;;;;;;;9.20;2.80;;;;;;;;;;5074832;28;20049;-58
2023/08/17 03:02:34;;;;;;;9.43;2.97;;;;;;;;;;5076209;28;20079;-60
2023/08/17 03:06:15;;;;;;;8.43;3.08;;;;;;;;;;5080427;28;20084;-59
2023/08/17 03:09:56;;;;;;;7.30;3.08;;;;;;;;;;5072679;28;20135;-60
2023/08/17 03:13:36;;;;;;;6.97;3.00;;;;;;;;;;5080227;28;20441;-60
2023/08/17 03:17:16;;;;;;;9.20;3.35;;;;;;;;;;5089661;28;20317;-59
2023/08/17 03:20:57;;;;;;;13.05;4.05;;;;;;;;;;5081918;28;20391;-57
2023/08/17 03:24:37;;;;;;;12.50;3.83;;;;;;;;;;5080850;28;20127;-54
2023/08/17 03:28:17;;;;;;;9.73;3.90;;;;;;;;;;5089098;28;20047;-59
2023/08/17 03:31:57;;;;;;;9.52;3.70;;;;;;;;;;5073030;28;20051;-60
2023/08/17 03:35:39;;;;;;;7.57;2.88;;;;;;;;;;5080316;28;20495;-55
2023/08/17 03:39:20;;;;;;;10.30;3.58;;;;;;;;;;5082794;28;20061;-59
2023/08/17 03:43:00;;;;;;;7.70;3.55;;;;;;;;;;5079626;28;20039;-62
2023/08/17 03:46:40;;;;;;;8.95;2.90;;;;;;;;;;5082914;28;20597;-60
2023/08/17 03:50:21;;;;;;;8.75;3.47;;;;;;;;;;5079278;28;20082;-62
2023/08/17 03:54:01;;;;;;;8.02;3.08;;;;;;;;;;5089063;28;20391;-57
2023/08/17 03:57:41;;;;;;;11.85;3.55;;;;;;;;;;5080207;28;20048;-59
2023/08/17 04:01:22;;;;;;;7.65;3.20;;;;;;;;;;5082259;28;20040;-60
2023/08/17 04:05:02;;;;;;;8.88;3.40;;;;;;;;;;5073729;28;20090;-58
2023/08/17 04:08:42;;;;;;;8.25;3.00;;;;;;;;;;5081628;28;20468;-58
2023/08/17 04:12:23;;;;;;;12.20;3.55;;;;;;;;;;5077642;28;20144;-58
2023/08/17 04:16:03;;;;;;;10.50;3.30;;;;;;;;;;5083836;28;20671;-60
2023/08/17 04:19:43;;;;;;;15.60;3.47;;;;;;;;;;5076608;28;20056;-58
2023/08/17 04:23:23;;;;;;;11.45;4.20;;;;;;;;;;5074987;28;20114;-60
2023/08/17 04:27:05;;;;;;;11.55;4.68;;;;;;;;;;5087194;28;20048;-56
2023/08/17 04:30:45;;;;;;;7.82;3.45;;;;;;;;;;5080608;28;20046;-58
2023/08/17 04:34:26;;;;;;;10.55;3.75;;;;;;;;;;5075821;28;20040;-58
2023/08/17 04:38:06;;;;;;;8.93;3.45;;;;;;;;;;5083772;28;20465;-60
2023/08/17 04:41:47;;;;;;;11.45;3.45;;;;;;;;;;5082759;28;20154;-61
2023/08/17 04:45:27;;;;;;;8.93;3.33;;;;;;;;;;5081348;28;20047;-59
2023/08/17 04:49:07;;;;;;;8.07;3.55;;;;;;;;;;5083038;28;20401;-61
2023/08/17 04:52:48;;;;;;;7.85;3.38;;;;;;;;;;5081490;28;20040;-60
2023/08/17 04:56:28;;;;;;;9.60;3.40;;;;;;;;;;5079747;28;20514;-60
2023/08/17 05:00:09;;;;;;;10.13;3.35;;;;;;;;;;5083825;28;20094;-56
2023/08/17 05:03:48;;;;;;;8.35;3.03;;;;;;;;;;5085470;28;20130;-56
2023/08/17 05:07:29;;;;;;;8.52;3.17;;;;;;;;;;5072553;28;20668;-60
2023/08/17 05:11:10;;;;;;;7.75;3.33;;;;;;;;;;5081985;28;20044;-62
2023/08/17 05:14:49;;;;;;;8.65;3.50;;;;;;;;;;5072132;28;20480;-58
2023/08/17 05:18:30;;;;;;;7.28;3.10;;;;;;;;;;5077859;28;20048;-60
2023/08/17 05:22:10;;;;;;;10.35;3.88;;;;;;;;;;5078596;28;20116;-58
2023/08/17 05:25:50;;;;;;;9.20;3.28;;;;;;;;;;5082318;28;20047;-59
2023/08/17 05:29:34;;;;;;;8.70;3.47;;;;;;;;;;5085540;28;20499;-60
2023/08/17 05:33:15;;;;;;;7.68;3.17;;;;;;;;;;5087788;28;20055;-59
2023/08/17 05:36:55;;;;;;;8.82;4.00;;;;;;;;;;5083304;28;20087;-60
2023/08/17 05:40:35;;;;;;;7.82;3.30;;;;;;;;;;5074841;28;20044;-58
2023/08/17 05:44:17;;;;;;;8.10;3.38;;;;;;;;;;5085855;28;20162;-61
2023/08/17 05:47:56;;;;;;;12.07;3.80;;;;;;;;;;5079762;28;20040;-59
2023/08/17 05:51:37;;;;;;;9.60;3.30;;;;;;;;;;5077762;28;20047;-60
2023/08/17 05:55:17;;;;;;;11.52;3.65;;;;;;;;;;5081259;28;20047;-57
2023/08/17 05:58:57;;;;;;;8.25;3.45;;;;;;;;;;5077333;28;20056;-63
2023/08/17 06:02:37;;;;;;;11.32;3.80;;;;;;;;;;5079063;28;20048;-57
2023/08/17 06:06:18;;;;;;;12.27;3.47;;;;;;;;;;5083983;28;20052;-61
2023/08/17 06:09:58;;;;;;;10.88;3.45;;;;;;;;;;5077385;28;20067;-58
2023/08/17 06:13:38;;;;;;;10.30;3.58;;;;;;;;;;5075202;28;20503;-57
2023/08/17 06:17:19;;;;;;;13.07;3.63;;;;;;;;;;5079111;28;20052;-57
2023/08/17 06:20:59;;;;;;;8.80;3.47;;;;;;;;;;5075464;28;20040;-59
2023/08/17 06:24:40;;;;;;;10.93;3.70;;;;;;;;;;5076134;28;20044;-60
2023/08/17 06:28:20;;;;;;;12.30;3.55;;;;;;;;;;5080901;28;20127;-63
2023/08/17 06:32:00;;;;;;;13.38;3.92;;;;;;;;;;5086964;28;20054;-59
2023/08/17 06:35:41;;;;;;;14.95;3.75;;;;;;;;;;5081441;28;20040;-60
2023/08/17 06:39:21;;;;;;;8.95;3.38;;;;;;;;;;5081564;28;20059;-59
2023/08/17 06:43:01;;;;;;;12.73;3.85;;;;;;;;;;5081700;28;20396;-61
2023/08/17 06:46:42;;;;;;;12.82;4.00;;;;;;;;;;5082953;28;20055;-60
2023/08/17 06:50:22;;;;;;;17.83;3.80;;;;;;;;;;5083439;28;20439;-60
2023/08/17 06:54:03;;;;;;;13.43;3.90;;;;;;;;;;5084220;28;20062;-61
2023/08/17 06:57:44;;;;;;;17.50;4.18;;;;;;;;;;5075728;28;20439;-62
2023/08/17 07:01:24;;;;;;;9.55;3.50;;;;;;;;;;5078278;28;20048;-63
2023/08/17 07:05:05;;;;;;;12.55;3.90;;;;;;;;;;5083169;28;20656;-62
2023/08/17 07:08:46;;;;;;;12.15;4.15;;;;;;;;;;5090170;28;20403;-61
2023/08/17 07:12:28;;;;;;;12.10;3.78;;;;;;;;;;5086896;28;20143;-61
2023/08/17 07:16:07;;;;;;;17.55;4.30;;;;;;;;;;5075161;28;20139;-59
2023/08/17 07:19:47;;;;;;;10.07;3.60;;;;;;;;;;5082042;28;20059;-59
2023/08/17 07:23:28;;;;;;;7.22;3.60;;;;;;;;;;5075985;28;20056;-64
2023/08/17 07:27:08;;;;;;;18.73;4.82;;;;;;;;;;5078825;28;20048;-58
2023/08/17 07:30:48;;;;;;;14.50;3.83;;;;;;;;;;5081589;28;20044;-58
2023/08/17 07:34:31;;;;;;;13.32;3.90;;;;;;;;;;5076386;28;20044;-57
2023/08/17 07:38:09;;;;;;;9.48;3.72;;;;;;;;;;5074036;28;20488;-59
2023/08/17 07:41:49;;;;;;;9.98;4.38;;;;;;;;;;5085572;28;20511;-58
2023/08/17 07:45:30;;;;;;;11.48;4.05;;;;;;;;;;5076408;28;20048;-59
2023/08/17 07:49:10;;;;;;;17.13;4.75;;;;;;;;;;5085541;28;20174;-59
2023/08/17 07:52:50;;;;;;;8.18;3.50;;;;;;;;;;5080722;28;20045;-59
2023/08/17 07:56:32;;;;;;;12.07;3.63;;;;;;;;;;5081874;28;20399;-60
2023/08/17 08:00:12;;;;;;;10.93;3.80;;;;;;;;;;5081968;28;20060;-57
2023/08/17 08:03:53;;;;;;;10.23;3.47;;;;;;;;;;5075112;28;20040;-62
2023/08/17 08:07:33;;;;;;;16.08;4.10;;;;;;;;;;5068422;28;20530;-61
2023/08/17 08:11:13;;;;;;;13.27;4.00;;;;;;;;;;5075354;28;20041;-61
2023/08/17 08:14:54;;;;;;;11.10;3.50;;;;;;;;;;5073270;28;20473;-61
2023/08/17 08:17:37;;;;;;;11.40;3.58;;;;;;;;;;5076022;28;20487;-62
2023/08/17 08:20:04;;;;;;;18.35;4.00;;;;;;;;;;5074685;28;20523;-60
2023/08/17 08:22:30;;;;;;;13.40;4.30;;;;;;;;;;5088947;28;20425;-60
2023/08/17 08:24:57;;;;;;;14.20;3.92;;;;;;;;;;5074523;28;20457;-58
2023/08/17 08:27:24;;;;;;;14.38;4.10;;;;;;;;;;5074020;28;20488;-59
2023/08/17 08:29:50;;;;;;;18.45;4.57;;;;;;;;;;5069295;28;20054;-60
2023/08/17 08:32:17;;;;;;;11.43;3.72;;;;;;;;;;5063113;28;20048;-58
2023/08/17 08:34:44;;;;;;;10.95;4.05;;;;;;;;;;5067691;28;20079;-60
2023/08/17 08:37:10;;;;;;;13.38;3.80;;;;;;;;;;5070080;28;20063;-59
2023/08/17 08:39:53;;;;;;;13.30;5.40;;;;;;;;;;5084799;28;20040;-60
2023/08/17 08:42:20;;;;;;;12.63;4.07;;;;;;;;;;5077004;28;20512;-61
2023/08/17 08:44:49;;;;;;;10.18;4.28;;;;;;;;;;5074568;28;20047;-60
2023/08/17 08:47:16;;;;;;;15.02;4.65;;;;;;;;;;5074440;28;20056;-64
2023/08/17 08:50:04;;;;;;;15.93;4.28;;;;;;;;;;5079613;28;20048;-62
2023/08/17 08:52:35;;;;;;;13.38;4.60;;;;;;;;;;5080715;28;20118;-63
2023/08/17 08:55:21;;;;;;;16.45;4.40;;;;;;;;;;5080184;28;20044;-65
2023/08/17 08:57:49;;;;;;;11.85;3.92;;;;;;;;;;5077584;28;20066;-62
2023/08/17 09:00:16;;;;;;;17.05;4.55;;;;;;;;;;5077849;28;20044;-59
2023/08/17 09:02:43;;;;;;;19.27;4.68;;;;;;;;;;5071890;28;20052;-60
2023/08/17 09:05:11;;;;;;;11.80;4.30;;;;;;;;;;5073724;28;20122;-61
2023/08/17 09:08:17;;;;;;;11.40;3.90;;;;;;;;;;5073941;28;20060;-61
2023/08/17 09:11:57;;;;;;;14.65;4.60;;;;;;;;;;5070904;28;20514;-63
2023/08/17 09:15:38;;;;;;;18.55;5.20;;;;;;;;;;5072990;28;20075;-61
2023/08/17 09:19:18;;;;;;;12.75;4.47;;;;;;;;;;5076646;28;20063;-61
2023/08/17 09:23:23;;;;;;;14.98;4.00;;;;;;;;;;5072647;28;20048;-64
2023/08/17 09:27:04;;;;;;;12.23;4.13;;;;;;;;;;5081882;28;20049;-64
2023/08/17 09:30:45;;;;;;;13.85;4.40;;;;;;;;;;5072937;28;20142;-65
2023/08/17 09:34:25;;;;;;;13.18;3.97;;;;;;;;;;5077174;28;20040;-62
2023/08/17 09:38:05;;;;;;;12.18;4.28;;;;;;;;;;5077445;28;20102;-64
2023/08/17 09:41:46;;;;;;;15.15;4.25;;;;;;;;;;5072375;28;20043;-65
2023/08/17 09:45:27;;;;;;;10.77;4.00;;;;;;;;;;5070924;28;20050;-67
2023/08/17 09:49:09;;;;;;;12.88;3.53;;;;;;;;;;5075800;28;20049;-65
2023/08/17 09:52:47;;;;;;;11.52;3.83;;;;;;;;;;5069918;28;20141;-66
2023/08/17 09:56:28;;;;;;;13.98;4.22;;;;;;;;;;5082937;28;20040;-63
2023/08/17 10:00:08;;;;;;;13.82;4.32;;;;;;;;;;5087156;28;20260;-65
2023/08/17 10:03:49;;;;;;;11.57;4.15;;;;;;;;;;5081435;28;20415;-65
2023/08/17 10:07:28;;;;;;;15.70;4.20;;;;;;;;;;5081740;28;20087;-66
2023/08/17 10:11:09;;;;;;;15.73;3.50;;;;;;;;;;5080254;28;20087;-65
2023/08/17 10:14:49;;;;;;;18.30;4.03;;;;;;;;;;5076814;28;20129;-65
2023/08/17 10:18:31;;;;;;;11.32;4.30;;;;;;;;;;5085179;28;20475;-65
2023/08/17 10:22:20;;;;;;;13.30;4.68;;;;;;;;;;5082032;28;20079;-66
2023/08/17 10:26:01;;;;;;;11.50;3.60;;;;;;;;;;5080811;28;20047;-66
2023/08/17 10:29:41;;;;;;;12.95;3.58;;;;;;;;;;5087019;28;20493;-66
2023/08/17 10:33:22;;;;;;;14.43;3.80;;;;;;;;;;5087388;28;20040;-65
2023/08/17 10:37:03;;;;;;;12.95;4.35;;;;;;;;;;5080820;28;20124;-66
2023/08/17 10:40:46;;;;;;;15.95;4.45;;;;;;;;;;5079942;28;20549;-68
2023/08/17 10:44:32;;;;;;;13.80;4.20;;;;;;;;;;5086907;28;20044;-68
2023/08/17 10:48:06;;;;;;;10.30;4.10;;;;;;;;;;5081997;28;20446;-64
2023/08/17 10:51:46;;;;;;;16.08;4.05;;;;;;;;;;5083239;28;20479;-64
2023/08/17 10:55:27;;;;;;;16.30;4.50;;;;;;;;;;5077278;28;20051;-65
2023/08/17 10:59:07;;;;;;;12.65;4.00;;;;;;;;;;5071187;28;20057;-64
2023/08/17 11:02:48;;;;;;;12.70;4.60;;;;;;;;;;5085211;28;20772;-64
2023/08/17 11:06:11;;;;;;;17.10;4.50;;;;;;;;;;5081974;28;20040;-64
2023/08/17 11:09:51;;;;;;;18.63;4.30;;;;;;;;;;5079832;28;20048;-66
2023/08/17 11:13:36;;;;;;;12.80;4.22;;;;;;;;;;5045115;28;20041;-64
2023/08/17 11:17:17;;;;;;;12.38;4.22;;;;;;;;;;5048736;28;20080;-64
2023/08/17 11:20:57;;;;;;;15.15;4.43;;;;;;;;;;5043923;28;20060;-62
2023/08/17 11:24:40;;;;;;;14.73;4.40;;;;;;;;;;5039072;28;20055;-63
2023/08/17 11:28:18;;;;;;;17.35;4.45;;;;;;;;;;5037904;28;20037;-63
2023/08/17 11:31:58;;;;;;;16.58;4.80;;;;;;;;;;5043609;28;20085;-62
2023/08/17 11:35:39;;;;;;;15.27;4.53;;;;;;;;;;5034703;28;20049;-63
2023/08/17 11:39:20;;;;;;;13.32;3.75;;;;;;;;;;5047820;28;20053;-63
2023/08/17 11:42:59;;;;;;;18.00;4.45;;;;;;;;;;5049421;28;20485;-62
2023/08/17 11:46:39;;;;;;;13.80;4.40;;;;;;;;;;5041824;28;20095;-63
2023/08/17 11:50:20;;;;;;;15.68;4.68;;;;;;;;;;5042209;28;20136;-65
2023/08/17 11:54:00;;;;;;;13.93;4.60;;;;;;;;;;5045767;28;20107;-62
2023/08/17 11:57:40;;;;;;;13.32;4.13;;;;;;;;;;5033167;28;20033;-62
2023/08/17 12:01:21;;;;;;;17.42;4.85;;;;;;;;;;5043234;28;20496;-63
2023/08/17 12:05:01;;;;;;;12.48;5.45;;;;;;;;;;5040544;28;20053;-64
2023/08/17 12:08:42;;;;;;;13.73;4.22;;;;;;;;;;5039810;28;20124;-64
2023/08/17 12:12:22;;;;;;;10.35;3.97;;;;;;;;;;5067499;28;20060;-62
2023/08/17 12:16:03;;;;;;;14.32;4.13;;;;;;;;;;5077408;28;20040;-65
2023/08/17 12:19:45;;;;;;;13.52;4.07;;;;;;;;;;5082122;28;20097;-62
2023/08/17 12:23:26;;;;;;;11.73;3.72;;;;;;;;;;5075202;28;20048;-64
2023/08/17 12:27:06;;;;;;;9.52;3.90;;;;;;;;;;5073276;28;20041;-64
2023/08/17 12:30:52;;;;;;;15.73;4.00;;;;;;;;;;5077603;28;20260;-65
2023/08/17 12:33:51;;;;;;;15.80;3.83;;;;;;;;;;5084035;28;20039;-64
2023/08/17 12:36:17;;;;;;;15.48;4.28;;;;;;;;;;5077045;28;20052;-66
2023/08/17 12:38:44;;;;;;;10.77;3.60;;;;;;;;;;5073001;28;20052;-65
2023/08/17 12:41:10;;;;;;;9.38;3.47;;;;;;;;;;5084675;28;20128;-65
2023/08/17 12:43:37;;;;;;;16.30;4.57;;;;;;;;;;5083523;28;20474;-62
2023/08/17 12:46:04;;;;;;;14.27;3.72;;;;;;;;;;5086156;28;20047;-62
2023/08/17 12:48:30;;;;;;;12.10;3.67;;;;;;;;;;5079358;28;20048;-62
2023/08/17 12:50:56;;;;;;;14.07;3.75;;;;;;;;;;5082074;28;20044;-62
2023/08/17 12:53:22;;;;;;;11.40;3.40;;;;;;;;;;5086573;28;20052;-61
2023/08/17 12:55:49;;;;;;;14.15;4.00;;;;;;;;;;5078177;28;20045;-62
2023/08/17 12:58:15;;;;;;;13.60;4.57;;;;;;;;;;5082576;28;20044;-61
2023/08/17 13:00:40;;;;;;;11.20;3.58;;;;;;;;;;5083149;28;20085;-63
2023/08/17 13:03:06;;;;;;;9.65;3.55;;;;;;;;;;5079269;28;20067;-64
2023/08/17 13:05:33;;;;;;;11.63;3.55;;;;;;;;;;5071092;28;20056;-64
2023/08/17 13:07:59;;;;;;;12.57;3.63;;;;;;;;;;5079326;28;20052;-64
2023/08/17 13:10:25;;;;;;;11.20;3.53;;;;;;;;;;5067023;28;20063;-64
2023/08/17 13:12:56;;;;;;;15.45;3.67;;;;;;;;;;5076591;28;20518;-63
2023/08/17 13:15:22;;;;;;;12.98;4.20;;;;;;;;;;5081935;28;20537;-62
2023/08/17 13:17:48;;;;;;;13.15;3.53;;;;;;;;;;5075099;28;20051;-61
2023/08/17 13:20:14;;;;;;;11.45;3.72;;;;;;;;;;5077372;28;20036;-64
2023/08/17 13:22:40;;;;;;;10.57;4.20;;;;;;;;;;5079215;28;20070;-65
2023/08/17 13:25:06;;;;;;;9.43;3.55;;;;;;;;;;5080959;28;20040;-62
2023/08/17 13:27:33;;;;;;;16.15;3.67;;;;;;;;;;5075171;28;20078;-65
2023/08/17 13:29:58;;;;;;;11.07;3.55;;;;;;;;;;5081750;28;20032;-62
2023/08/17 13:32:25;;;;;;;16.48;3.78;;;;;;;;;;5079681;28;20063;-63
2023/08/17 13:34:51;;;;;;;11.38;3.50;;;;;;;;;;5084215;28;20133;-64
2023/08/17 13:37:17;;;;;;;12.88;3.90;;;;;;;;;;5078284;28;20488;-65
2023/08/17 13:39:44;;;;;;;11.70;4.03;;;;;;;;;;5072060;28;20054;-64
2023/08/17 13:42:10;;;;;;;18.02;4.28;;;;;;;;;;5078415;28;20095;-64
2023/08/17 13:44:36;;;;;;;10.65;3.28;;;;;;;;;;5077779;28;20083;-64
2023/08/17 13:47:02;;;;;;;9.15;3.78;;;;;;;;;;5066706;28;20063;-63
2023/08/17 13:49:27;;;;;;;10.27;3.20;;;;;;;;;;5072910;28;20783;-63
2023/08/17 13:51:56;;;;;;;10.65;3.22;;;;;;;;;;5076772;28;20248;-64
2023/08/17 13:54:25;;;;;;;17.08;3.92;;;;;;;;;;5071276;28;20085;-61
2023/08/17 13:56:51;;;;;;;14.23;3.60;;;;;;;;;;5074702;28;20053;-64
2023/08/17 13:59:17;;;;;;;13.57;3.50;;;;;;;;;;5068864;28;20035;-64
2023/08/17 14:01:43;;;;;;;9.57;3.60;;;;;;;;;;5074874;28;20281;-64
2023/08/17 14:04:12;;;;;;;11.18;3.67;;;;;;;;;;5080029;28;20111;-63
2023/08/17 14:06:39;;;;;;;16.05;3.70;;;;;;;;;;5074182;28;20044;-62
2023/08/17 14:09:05;;;;;;;12.30;3.65;;;;;;;;;;5074472;28;20048;-62
2023/08/17 14:11:31;;;;;;;9.10;3.78;;;;;;;;;;5072533;28;20560;-63
2023/08/17 14:13:57;;;;;;;11.27;3.30;;;;;;;;;;5077718;28;20075;-62
2023/08/17 14:16:23;;;;;;;14.27;3.75;;;;;;;;;;5081212;28;20040;-64
2023/08/17 14:18:49;;;;;;;10.32;3.47;;;;;;;;;;5075943;28;20127;-62
2023/08/17 14:21:15;;;;;;;9.82;3.35;;;;;;;;;;5069462;28;20125;-63
2023/08/17 14:23:41;;;;;;;11.85;3.35;;;;;;;;;;5076280;28;20048;-65
2023/08/17 14:26:07;;;;;;;14.02;3.90;;;;;;;;;;5070700;28;20075;-64
2023/08/17 14:28:33;;;;;;;17.73;3.35;;;;;;;;;;5072617;28;20063;-63
2023/08/17 14:30:59;;;;;;;11.30;3.33;;;;;;;;;;5073487;28;20507;-61
2023/08/17 14:33:26;;;;;;;14.27;3.67;;;;;;;;;;5077709;28;20044;-62
2023/08/17 14:35:52;;;;;;;14.18;3.55;;;;;;;;;;5078266;28;20055;-63
2023/08/17 14:38:18;;;;;;;13.23;3.50;;;;;;;;;;5076625;28;20056;-61
2023/08/17 14:40:46;;;;;;;13.23;3.72;;;;;;;;;;5069781;28;20057;-61
2023/08/17 14:43:13;;;;;;;15.60;3.50;;;;;;;;;;5072790;28;20135;-61
2023/08/17 14:45:40;;;;;;;14.85;3.40;;;;;;;;;;5081556;28;20048;-63
2023/08/17 14:48:07;;;;;;;13.88;3.90;;;;;;;;;;5073025;28;20135;-61
2023/08/17 14:50:37;;;;;;;11.10;3.30;;;;;;;;;;5080526;28;20048;-60
2023/08/17 14:53:06;;;;;;;9.60;3.38;;;;;;;;;;5074120;28;20098;-60
2023/08/17 14:55:33;;;;;;;17.95;3.83;;;;;;;;;;5081142;28;20066;-61
2023/08/17 14:57:59;;;;;;;15.57;3.55;;;;;;;;;;5079943;28;20110;-58
2023/08/17 15:00:26;;;;;;;10.43;3.22;;;;;;;;;;5074434;28;20151;-61
2023/08/17 15:02:56;;;;;;;11.25;3.30;;;;;;;;;;5074077;28;20049;-61
2023/08/17 15:05:22;;;;;;;11.55;3.40;;;;;;;;;;5071574;28;20045;-60
2023/08/17 15:07:48;;;;;;;12.00;3.58;;;;;;;;;;5076658;28;20071;-61
2023/08/17 15:10:15;;;;;;;17.40;4.00;;;;;;;;;;5071168;28;20052;-62
2023/08/17 15:12:41;;;;;;;11.45;3.35;;;;;;;;;;5073643;28;20071;-61
2023/08/17 15:15:08;;;;;;;14.70;4.13;;;;;;;;;;5072720;28;20151;-62
2023/08/17 15:17:34;;;;;;;12.10;3.35;;;;;;;;;;5071848;28;20071;-61
2023/08/17 15:20:00;;;;;;;12.50;3.80;;;;;;;;;;5073135;28;20066;-61
2023/08/17 15:22:26;;;;;;;11.05;3.47;;;;;;;;;;5075222;28;20078;-60
2023/08/17 15:24:53;;;;;;;11.95;3.70;;;;;;;;;;5075993;28;20047;-63
2023/08/17 15:27:19;;;;;;;13.68;3.40;;;;;;;;;;5076425;28;20067;-61
2023/08/17 15:29:45;;;;;;;9.05;3.42;;;;;;;;;;5076086;28;20040;-61
2023/08/17 15:32:11;;;;;;;11.82;3.75;;;;;;;;;;5072078;28;20052;-66
2023/08/17 15:34:37;;;;;;;13.43;3.65;;;;;;;;;;5071143;28;20041;-63
2023/08/17 15:37:03;;;;;;;16.88;3.65;;;;;;;;;;5071110;28;20048;-62
2023/08/17 15:40:09;;;;;;;13.00;3.05;;;;;;;;;;5068146;28;20052;-62
2023/08/17 15:43:34;;;;;;;12.07;3.75;;;;;;;;;;5064610;28;20048;-62
2023/08/17 15:47:15;;;;;;;13.02;3.28;;;;;;;;;;5080535;28;20081;-61
2023/08/17 15:50:55;;;;;;;14.20;3.45;;;;;;;;;;5074526;28;20044;-63
2023/08/17 15:54:36;;;;;;;15.43;3.63;;;;;;;;;;5078773;28;20419;-59
2023/08/17 15:58:16;;;;;;;14.25;3.80;;;;;;;;;;5070223;28;20484;-61
2023/08/17 16:01:56;;;;;;;12.02;3.60;;;;;;;;;;5069729;28;20406;-59
2023/08/17 16:05:36;;;;;;;10.68;3.13;;;;;;;;;;5069534;28;20534;-66
2023/08/17 16:09:17;;;;;;;14.05;3.75;;;;;;;;;;5074666;28;20074;-63
2023/08/17 16:12:57;;;;;;;11.85;3.80;;;;;;;;;;5075752;28;20052;-63
2023/08/17 16:16:38;;;;;;;17.65;4.10;;;;;;;;;;5074613;28;20040;-62
2023/08/17 16:20:19;;;;;;;11.27;3.53;;;;;;;;;;5067023;28;20524;-62
2023/08/17 16:23:59;;;;;;;12.80;2.92;;;;;;;;;;5069331;28;20082;-61
2023/08/17 16:27:39;;;;;;;10.63;3.90;;;;;;;;;;5071823;28;20063;-62
2023/08/17 16:31:20;;;;;;;13.02;3.17;;;;;;;;;;5070982;28;20097;-63
2023/08/17 16:35:00;;;;;;;12.68;3.58;;;;;;;;;;5071636;28;20076;-62
2023/08/17 16:38:40;;;;;;;17.80;3.90;;;;;;;;;;5069737;28;20052;-64
2023/08/17 16:42:21;;;;;;;13.38;3.63;;;;;;;;;;5073016;28;20378;-63
2023/08/17 16:46:01;;;;;;;9.15;3.63;;;;;;;;;;5073229;28;20404;-63
2023/08/17 16:49:41;;;;;;;11.50;3.50;;;;;;;;;;5070700;28;20090;-60
2023/08/17 16:53:22;;;;;;;10.70;3.72;;;;;;;;;;5070984;28;20040;-62
2023/08/17 16:57:02;;;;;;;10.00;3.67;;;;;;;;;;5071579;28;20048;-61
2023/08/17 17:00:42;;;;;;;10.63;3.58;;;;;;;;;;5073482;28;20131;-61
2023/08/17 17:04:24;;;;;;;11.57;3.53;;;;;;;;;;5070815;28;20115;-62
2023/08/17 17:08:04;;;;;;;14.25;3.60;;;;;;;;;;5070391;28;20088;-62
2023/08/17 17:11:45;;;;;;;11.00;3.35;;;;;;;;;;5073636;28;20053;-61
2023/08/17 17:15:26;;;;;;;9.77;3.47;;;;;;;;;;5068855;28;20059;-62
2023/08/17 17:19:06;;;;;;;14.65;3.78;;;;;;;;;;5073767;28;20056;-61
2023/08/17 17:22:46;;;;;;;16.92;4.05;;;;;;;;;;5078705;28;20519;-61
2023/08/17 17:26:27;;;;;;;14.40;3.83;;;;;;;;;;5077476;28;20048;-60
2023/08/17 17:30:07;;;;;;;14.73;4.10;;;;;;;;;;5071425;28;20048;-61
2023/08/17 17:33:47;;;;;;;14.07;4.45;;;;;;;;;;5086143;28;20044;-63
2023/08/17 17:37:27;;;;;;;11.25;3.92;;;;;;;;;;5071960;28;20048;-62
2023/08/17 17:41:08;;;;;;;16.23;4.00;;;;;;;;;;5082603;28;20441;-61
2023/08/17 17:44:48;;;;;;;10.07;4.03;;;;;;;;;;5077926;28;20048;-61
2023/08/17 17:48:31;;;;;;;13.35;3.90;;;;;;;;;;5084240;28;20044;-60
2023/08/17 17:52:10;;;;;;;11.75;3.90;;;;;;;;;;5082378;28;20055;-58
2023/08/17 17:55:51;;;;;;;14.57;4.10;;;;;;;;;;5082305;28;20503;-59
2023/08/17 17:59:31;;;;;;;14.35;3.90;;;;;;;;;;5081768;28;20048;-62
2023/08/17 18:03:12;;;;;;;12.07;4.13;;;;;;;;;;5076666;28;20576;-65
2023/08/17 18:06:51;;;;;;;14.43;4.32;;;;;;;;;;5069295;28;20090;-62
2023/08/17 18:10:32;;;;;;;13.02;4.13;;;;;;;;;;5066218;28;20044;-66
2023/08/17 18:14:13;;;;;;;10.85;3.65;;;;;;;;;;5074769;28;20503;-62
2023/08/17 18:17:52;;;;;;;11.98;3.97;;;;;;;;;;5076193;28;20044;-64
2023/08/17 18:21:33;;;;;;;13.15;4.20;;;;;;;;;;5071343;28;20055;-64
2023/08/17 18:25:13;;;;;;;13.23;3.88;;;;;;;;;;5072602;28;20110;-63
2023/08/17 18:28:55;;;;;;;12.60;4.20;;;;;;;;;;5075478;28;20102;-64
2023/08/17 18:32:34;;;;;;;14.98;3.85;;;;;;;;;;5073451;28;20476;-64
2023/08/17 18:36:14;;;;;;;15.02;6.03;;;;;;;;;;5072406;28;20048;-63
2023/08/17 18:39:55;;;;;;;11.68;4.10;;;;;;;;;;5077538;28;20056;-61
2023/08/17 18:43:35;;;;;;;15.40;4.55;;;;;;;;;;5074702;28;20071;-64
2023/08/17 18:47:15;;;;;;;13.88;3.83;;;;;;;;;;5076263;28;20052;-65
2023/08/17 18:50:56;;;;;;;13.57;4.50;;;;;;;;;;5078785;28;20080;-65
2023/08/17 18:54:36;;;;;;;13.50;4.80;;;;;;;;;;5074892;28;20487;-63
2023/08/17 18:58:17;;;;;;;10.80;4.38;;;;;;;;;;5072886;28;20377;-66
2023/08/17 19:01:57;;;;;;;11.40;4.00;;;;;;;;;;5073800;28;20048;-63
2023/08/17 19:05:39;;;;;;;16.83;4.65;;;;;;;;;;5078205;28;20056;-65
2023/08/17 19:09:17;;;;;;;11.30;4.07;;;;;;;;;;5070307;28;20467;-63
2023/08/17 19:12:58;;;;;;;14.77;4.47;;;;;;;;;;5080521;28;20084;-64
2023/08/17 19:16:38;;;;;;;14.65;4.63;;;;;;;;;;5071658;28;20343;-63
2023/08/17 19:20:20;;;;;;;15.10;4.95;;;;;;;;;;5075691;28;20035;-62
2023/08/17 19:24:00;;;;;;;11.02;4.10;;;;;;;;;;5072511;28;20062;-64
2023/08/17 19:27:40;;;;;;;11.52;4.88;;;;;;;;;;5078904;28;20102;-63
2023/08/17 19:31:21;;;;;;;13.68;4.38;;;;;;;;;;5074651;28;20048;-63
2023/08/17 19:35:01;;;;;;;14.60;4.75;;;;;;;;;;5073724;28;20051;-64
2023/08/17 19:38:41;;;;;;;20.15;5.10;;;;;;;;;;5076754;28;20040;-63
2023/08/17 19:42:21;;;;;;;14.13;5.00;;;;;;;;;;5078378;28;20070;-62
2023/08/17 19:46:02;;;;;;;13.85;4.57;;;;;;;;;;5081291;28;20128;-62
2023/08/17 19:49:42;;;;;;;16.25;4.95;;;;;;;;;;5077836;28;20502;-62